Time;durP1;ratioP1;P1;durP2;ratioP2;P2;SDS_P1;SDS_P2;PMS_P1;PMS_P2;Temp;Humidity;BMP_temperature;BMP_pressure;BME280_temperature;BME280_humidity;BME280_pressure;Samples;Min_cycle;Max_cycle;Signal;HPM_P1;HPM_P2
2021/03/12 00:04:08;;;;;;;19.57;11.50;;;;;;;4.41;79.95;97412.52;259014;1108;23076;-74
2021/03/12 00:09:10;;;;;;;19.90;12.23;;;;;;;4.45;80.08;97428.67;259161;1109;23027;-74
2021/03/12 00:14:17;;;;;;;18.83;11.47;;;;;;;4.51;80.27;97416.14;259246;1109;22994;-74
2021/03/12 00:19:20;;;;;;;20.67;12.07;;;;;;;4.52;80.05;97429.12;259151;1109;23031;-74
2021/03/12 00:24:23;;;;;;;17.90;11.17;;;;;;;4.57;80.04;97441.53;259120;1109;23005;-74
2021/03/12 00:29:29;;;;;;;15.95;9.30;;;;;;;4.60;81.18;97431.16;259094;1108;23280;-75
2021/03/12 00:34:31;;;;;;;16.50;11.13;;;;;;;4.65;80.17;97440.13;259266;1109;23673;-75
2021/03/12 00:39:34;;;;;;;18.95;11.40;;;;;;;4.62;79.84;97428.22;258788;1108;23052;-75
2021/03/12 00:44:45;;;;;;;17.60;10.77;;;;;;;4.61;80.49;97410.72;258837;1109;26405;-75
2021/03/12 00:49:48;;;;;;;16.60;10.97;;;;;;;4.56;80.36;97382.41;259158;1108;23038;-74
2021/03/12 00:54:50;;;;;;;17.83;10.63;;;;;;;4.50;80.15;97383.52;259046;1109;23033;-76
2021/03/12 01:00:07;;;;;;;18.93;12.27;;;;;;;4.47;80.53;97388.61;258816;1109;23170;-76
2021/03/12 01:05:13;;;;;;;19.60;11.40;;;;;;;4.47;80.48;97410.60;258736;1107;23097;-75
2021/03/12 01:10:18;;;;;;;21.00;12.07;;;;;;;4.49;81.51;97423.58;258923;1109;23091;-75
2021/03/12 01:15:23;;;;;;;18.20;11.07;;;;;;;4.48;80.90;97412.19;258894;1109;23025;-76
2021/03/12 01:20:31;;;;;;;19.23;11.40;;;;;;;4.48;81.13;97412.19;259068;1109;23094;-76
2021/03/12 01:25:44;;;;;;;20.30;12.40;;;;;;;4.47;81.07;97405.30;259144;1109;27500;-75
2021/03/12 01:30:49;;;;;;;19.80;10.90;;;;;;;4.49;81.20;97397.87;259162;1109;23030;-75
2021/03/12 01:36:14;;;;;;;16.77;10.80;;;;;;;4.50;80.94;97383.52;258803;1108;23046;-74
2021/03/12 01:41:23;;;;;;;16.60;10.77;;;;;;;4.49;80.98;97389.91;258758;1109;23026;-75
2021/03/12 01:46:26;;;;;;;18.35;10.55;;;;;;;4.47;81.01;97392.04;258789;1109;23199;-76
2021/03/12 01:51:29;;;;;;;15.95;10.75;;;;;;;4.45;81.40;97359.72;258735;1109;23022;-76
2021/03/12 01:56:32;;;;;;;18.80;11.47;;;;;;;4.40;81.87;97368.50;259164;1109;23323;-75
2021/03/12 02:01:45;;;;;;;19.90;11.57;;;;;;;4.34;81.68;97355.58;258957;1109;26443;-75
2021/03/12 02:06:55;;;;;;;20.13;10.53;;;;;;;4.27;82.62;97356.72;258756;1109;22991;-75
2021/03/12 02:12:14;;;;;;;21.05;11.95;;;;;;;4.21;82.42;97368.46;258886;1109;23051;-75
2021/03/12 02:17:23;;;;;;;20.57;12.57;;;;;;;4.16;82.50;97368.50;258814;1109;23030;-75
2021/03/12 02:22:28;;;;;;;19.47;11.63;;;;;;;4.15;81.91;97356.31;258699;1109;23028;-74
2021/03/12 02:27:32;;;;;;;21.47;12.27;;;;;;;4.13;81.75;97339.91;259105;1109;23233;-74
2021/03/12 02:32:40;;;;;;;18.10;11.73;;;;;;;4.12;82.06;97338.33;258874;1109;23256;-76
2021/03/12 02:37:46;;;;;;;19.42;12.05;;;;;;;4.08;82.48;97348.69;258710;1109;24672;-75
2021/03/12 02:42:49;;;;;;;20.33;12.57;;;;;;;4.07;82.54;97343.67;258857;1108;23232;-74
2021/03/12 02:47:52;;;;;;;18.95;10.75;;;;;;;4.05;82.75;97338.66;258749;1109;26446;-75
2021/03/12 02:52:58;;;;;;;17.13;11.57;;;;;;;4.06;82.26;97355.36;259252;1109;24734;-74
2021/03/12 02:58:02;;;;;;;18.07;11.37;;;;;;;4.05;82.53;97343.95;258974;1108;23008;-74
2021/03/12 03:03:08;;;;;;;18.40;10.60;;;;;;;4.07;82.77;97348.97;258605;1109;23216;-75
2021/03/12 03:08:29;;;;;;;17.80;10.90;;;;;;;4.07;82.67;97347.13;258873;1109;23083;-75
2021/03/12 03:13:37;;;;;;;15.03;10.20;;;;;;;4.08;82.53;97366.45;259069;1108;23026;-75
2021/03/12 03:18:40;;;;;;;17.73;10.60;;;;;;;4.08;82.66;97369.11;258908;1107;26469;-74
2021/03/12 03:23:45;;;;;;;20.23;11.73;;;;;;;4.08;82.40;97372.53;258747;1109;23016;-73
2021/03/12 03:28:50;;;;;;;18.15;11.45;;;;;;;4.11;82.21;97381.80;258848;1108;23089;-74
2021/03/12 03:33:53;;;;;;;20.57;11.30;;;;;;;4.13;82.59;97394.77;259179;1109;23022;-74
2021/03/12 03:38:55;;;;;;;16.57;10.60;;;;;;;4.13;82.63;97400.06;258977;1109;23399;-75
2021/03/12 03:43:58;;;;;;;17.73;11.53;;;;;;;4.12;82.82;97399.28;258628;1109;23155;-76
2021/03/12 03:49:08;;;;;;;19.45;12.30;;;;;;;4.14;82.24;97396.35;258789;1108;23024;-75
2021/03/12 03:54:16;;;;;;;16.20;11.07;;;;;;;4.15;82.75;97425.22;258862;1109;23231;-75
2021/03/12 03:59:20;;;;;;;19.13;11.67;;;;;;;4.17;83.10;97433.70;258978;1109;23326;-76
2021/03/12 04:04:23;;;;;;;15.90;10.57;;;;;;;4.24;84.14;97433.35;258770;1108;23006;-74
2021/03/12 04:09:26;;;;;;;19.30;11.60;;;;;;;4.24;83.30;97439.47;258625;1109;23199;-74
2021/03/12 04:14:30;;;;;;;16.43;10.20;;;;;;;4.26;83.09;97437.31;259344;1108;24654;-75
2021/03/12 04:19:34;;;;;;;15.90;10.03;;;;;;;4.30;82.96;97450.03;258675;1108;24159;-75
2021/03/12 04:24:39;;;;;;;14.05;9.20;;;;;;;4.32;83.53;97446.00;258923;1108;23075;-75
2021/03/12 04:29:44;;;;;;;15.27;9.17;;;;;;;4.38;82.99;97441.44;258929;1109;23083;-75
2021/03/12 04:34:47;;;;;;;13.97;8.73;;;;;;;4.48;83.05;97438.70;259212;1109;23090;-74
2021/03/12 04:39:52;;;;;;;14.30;8.63;;;;;;;4.57;82.61;97415.78;258891;1109;24660;-75
2021/03/12 04:44:57;;;;;;;13.10;8.80;;;;;;;4.62;81.93;97415.73;258947;1109;23018;-75
2021/03/12 04:50:01;;;;;;;14.40;9.50;;;;;;;4.69;82.41;97425.23;258825;1109;23080;-74
2021/03/12 04:55:05;;;;;;;13.03;8.33;;;;;;;4.74;81.69;97419.85;258800;1109;23026;-75
2021/03/12 05:00:09;;;;;;;14.50;8.55;;;;;;;4.69;81.89;97410.09;258777;1109;23194;-74
2021/03/12 05:05:19;;;;;;;17.93;11.27;;;;;;;4.65;81.73;97400.34;259007;1109;23035;-75
2021/03/12 05:10:22;;;;;;;16.63;11.20;;;;;;;4.63;81.28;97398.76;258944;1109;23472;-74
2021/03/12 05:15:24;;;;;;;17.73;10.73;;;;;;;4.58;81.43;97422.67;258766;1107;22999;-75
2021/03/12 05:20:27;;;;;;;18.53;11.17;;;;;;;4.53;81.39;97427.25;258882;1107;23229;-74
2021/03/12 05:25:30;;;;;;;17.87;11.13;;;;;;;4.49;81.79;97456.20;259063;1109;23081;-74
2021/03/12 05:30:33;;;;;;;19.60;12.10;;;;;;;4.46;81.99;97477.96;259036;1107;22994;-75
2021/03/12 05:35:36;;;;;;;18.33;12.33;;;;;;;4.47;82.00;97492.81;258834;1108;23054;-75
2021/03/12 05:40:40;;;;;;;18.83;11.70;;;;;;;4.55;81.85;97494.08;258785;1108;23091;-75
2021/03/12 05:45:42;;;;;;;19.53;11.07;;;;;;;4.71;81.84;97489.40;258872;1109;23154;-75
2021/03/12 05:50:47;;;;;;;16.40;10.00;;;;;;;4.83;81.54;97497.77;258807;1109;23029;-75
2021/03/12 05:55:50;;;;;;;18.13;10.20;;;;;;;4.94;81.48;97507.20;258810;1109;23032;-74
2021/03/12 06:00:53;;;;;;;17.37;10.63;;;;;;;5.04;81.08;97521.44;258726;1107;23360;-74
2021/03/12 06:05:56;;;;;;;18.75;11.85;;;;;;;5.11;81.04;97532.50;258932;1109;23077;-74
2021/03/12 06:10:59;;;;;;;20.07;11.77;;;;;;;5.16;80.89;97553.66;258883;1109;23262;-74
2021/03/12 06:16:21;;;;;;;20.57;12.30;;;;;;;5.20;80.92;97553.91;258776;1109;23151;-74
2021/03/12 06:21:28;;;;;;;19.60;12.20;;;;;;;5.24;80.58;97566.32;259135;1108;22981;-74
2021/03/12 06:26:46;;;;;;;18.93;10.43;;;;;;;5.24;80.34;97568.20;259106;1108;28623;-74
2021/03/12 06:31:58;;;;;;;18.90;11.47;;;;;;;5.26;80.20;97580.13;258696;1109;23154;-75
2021/03/12 06:37:29;;;;;;;17.62;10.32;;;;;;;5.36;79.88;97583.72;258711;1109;23023;-76
2021/03/12 06:43:08;;;;;;;18.57;10.37;;;;;;;5.39;80.04;97593.80;258887;1109;23029;-75
2021/03/12 06:48:28;;;;;;;17.50;10.27;;;;;;;5.45;79.12;97604.06;259346;1109;23038;-74
2021/03/12 06:53:49;;;;;;;17.30;10.50;;;;;;;5.56;79.47;97602.09;260024;1108;23000;-76
2021/03/12 06:59:02;;;;;;;14.00;8.50;;;;;;;5.64;78.55;97598.80;260122;1107;23083;-75
2021/03/12 07:04:14;;;;;;;16.10;9.07;;;;;;;5.77;78.34;97618.56;259383;1109;23008;-73
2021/03/12 07:09:57;;;;;;;19.67;9.93;;;;;;;5.95;77.26;97608.27;261098;1108;23892;-74
2021/03/12 07:15:13;;;;;;;15.05;8.45;;;;;;;6.13;76.57;97615.48;259119;1108;23122;-74
2021/03/12 07:20:28;;;;;;;12.77;7.37;;;;;;;6.34;76.83;97617.86;259162;1109;23025;-74
2021/03/12 07:25:34;;;;;;;11.95;8.00;;;;;;;6.67;76.44;97631.98;259191;1107;23225;-75
2021/03/12 07:30:43;;;;;;;9.15;5.80;;;;;;;7.03;76.25;97636.70;259753;1109;23478;-74
2021/03/12 07:35:49;;;;;;;7.23;4.60;;;;;;;7.26;74.59;97642.19;259308;1109;23225;-74
2021/03/12 07:41:07;;;;;;;6.57;3.93;;;;;;;7.27;72.59;97654.41;259421;1108;23146;-73
2021/03/12 07:46:18;;;;;;;6.43;3.93;;;;;;;7.31;72.41;97659.95;259280;1108;23212;-73
2021/03/12 07:51:48;;;;;;;7.03;4.00;;;;;;;7.37;73.17;97677.41;259586;1109;26073;-74
2021/03/12 07:56:53;;;;;;;6.95;3.70;;;;;;;7.39;72.56;97677.11;259502;1109;23151;-74
2021/03/12 08:02:20;;;;;;;4.67;2.67;;;;;;;7.28;72.34;97693.29;259251;1108;23091;-75
2021/03/12 08:07:42;;;;;;;6.90;3.50;;;;;;;7.17;72.68;97703.31;259071;1109;24352;-75
2021/03/12 08:12:49;;;;;;;7.37;4.53;;;;;;;6.94;73.48;97710.36;259848;1108;23452;-75
2021/03/12 08:17:57;;;;;;;6.57;3.97;;;;;;;6.75;74.43;97718.35;259339;1109;23077;-76
2021/03/12 08:23:07;;;;;;;5.43;2.97;;;;;;;6.60;75.61;97722.02;259249;1109;23099;-74
2021/03/12 08:28:12;;;;;;;3.67;2.70;;;;;;;6.55;75.28;97730.09;260339;1109;23113;-75
2021/03/12 08:33:32;;;;;;;4.93;2.70;;;;;;;6.46;75.70;97732.61;259587;1108;23233;-75
2021/03/12 08:38:54;;;;;;;5.10;2.70;;;;;;;6.41;75.99;97745.16;259733;1108;26047;-75
2021/03/12 08:43:57;;;;;;;4.27;2.43;;;;;;;6.43;75.63;97775.72;259471;1109;23822;-74
2021/03/12 08:49:19;;;;;;;5.40;2.73;;;;;;;6.25;77.78;97816.38;259173;1107;23030;-74
2021/03/12 08:54:29;;;;;;;5.00;3.03;;;;;;;6.01;76.56;97781.81;259240;1107;23030;-75
2021/03/12 08:59:37;;;;;;;3.30;2.00;;;;;;;5.81;77.20;97772.95;259722;1107;23069;-75
2021/03/12 09:04:49;;;;;;;3.77;2.03;;;;;;;5.77;77.38;97804.59;259507;1109;26763;-74
2021/03/12 09:10:27;;;;;;;5.80;2.90;;;;;;;5.88;78.13;97810.62;259541;1109;23029;-74
2021/03/12 09:15:48;;;;;;;5.13;2.87;;;;;;;6.29;78.92;97804.88;260045;1108;23381;-74
2021/03/12 09:21:10;;;;;;;4.67;2.67;;;;;;;6.67;77.98;97830.78;259777;1109;23013;-73
2021/03/12 09:26:25;;;;;;;8.60;4.23;;;;;;;6.93;78.28;97836.57;259968;1109;23666;-74
2021/03/12 09:31:34;;;;;;;8.57;4.27;;;;;;;7.03;76.68;97835.64;260085;1108;23084;-74
2021/03/12 09:36:46;;;;;;;7.07;3.70;;;;;;;7.30;77.79;97848.31;259407;1109;24321;-74
2021/03/12 09:42:08;;;;;;;4.10;2.40;;;;;;;7.44;75.39;97863.55;259845;1109;23232;-74
2021/03/12 09:47:23;;;;;;;2.67;1.93;;;;;;;7.36;74.81;97881.78;260211;1108;26430;-74
2021/03/12 09:52:32;;;;;;;1.70;1.60;;;;;;;7.19;74.31;97902.80;261182;1108;23046;-74
2021/03/12 09:57:46;;;;;;;3.85;1.90;;;;;;;6.99;73.85;97898.53;259200;1109;23353;-75
2021/03/12 10:02:58;;;;;;;1.90;1.57;;;;;;;6.90;74.01;97911.70;259236;1109;23006;-74
2021/03/12 10:08:21;;;;;;;1.97;1.30;;;;;;;6.72;73.93;97889.28;259416;1108;23465;-73
2021/03/12 10:13:47;;;;;;;2.70;1.60;;;;;;;6.51;74.17;97896.70;259356;1109;23001;-73
2021/03/12 10:19:11;;;;;;;2.90;2.03;;;;;;;6.57;74.61;97895.56;259384;1108;23243;-73
2021/03/12 10:24:14;;;;;;;2.43;1.70;;;;;;;6.57;74.67;97903.55;259195;1108;23004;-74
2021/03/12 10:29:16;;;;;;;2.33;1.50;;;;;;;6.64;74.63;97898.67;259242;1108;23086;-74
2021/03/12 10:34:45;;;;;;;1.40;1.30;;;;;;;6.78;74.30;97901.44;259213;1109;23223;-74
2021/03/12 10:39:49;;;;;;;2.27;1.60;;;;;;;7.08;74.54;97912.00;259174;1108;23039;-74
2021/03/12 10:44:58;;;;;;;1.83;1.53;;;;;;;7.26;73.80;97902.44;259752;1108;23034;-74
2021/03/12 10:50:18;;;;;;;2.47;1.20;;;;;;;7.53;72.78;97910.58;259741;1108;23032;-74
2021/03/12 10:55:20;;;;;;;3.20;1.60;;;;;;;7.96;72.54;97912.34;259588;1108;23077;-74
2021/03/12 11:00:42;;;;;;;;;;;;;;;8.29;71.24;97908.84;259430;1109;26556;-73
2021/03/12 11:05:44;;;;;;;2.17;1.67;;;;;;;8.48;70.00;97924.80;259563;1109;21536;-74
2021/03/12 11:10:46;;;;;;;2.63;1.33;;;;;;;8.59;68.11;97918.21;259110;1109;23125;-75
2021/03/12 11:15:49;;;;;;;1.50;1.20;;;;;;;8.75;66.30;97913.36;259563;1108;23027;-74
2021/03/12 11:20:52;;;;;;;2.57;1.30;;;;;;;8.78;64.38;97906.63;259099;1109;26299;-74
2021/03/12 11:25:56;;;;;;;2.87;1.60;;;;;;;8.58;64.72;97919.29;259672;1107;23074;-74
2021/03/12 11:31:02;;;;;;;2.60;1.90;;;;;;;8.29;64.58;97912.30;259330;1108;27505;-74
2021/03/12 11:36:07;;;;;;;1.60;1.10;;;;;;;8.13;62.69;97921.64;259561;1109;23961;-74
2021/03/12 11:41:09;;;;;;;2.87;1.60;;;;;;;7.99;64.24;97930.42;259590;1108;23607;-75
2021/03/12 11:46:12;;;;;;;3.13;1.40;;;;;;;7.93;63.96;97939.56;259506;1107;23033;-75
2021/03/12 11:51:14;;;;;;;2.10;1.50;;;;;;;7.90;64.10;97932.15;259693;1107;23097;-75
2021/03/12 11:56:17;;;;;;;2.93;1.77;;;;;;;7.86;63.69;97949.81;260178;1108;23228;-76
2021/03/12 12:01:19;;;;;;;1.40;1.20;;;;;;;8.05;64.24;97950.58;260525;1108;23087;-75
2021/03/12 12:06:22;;;;;;;1.83;1.10;;;;;;;8.46;64.64;97956.34;260346;1107;22991;-74
2021/03/12 12:11:24;;;;;;;1.00;0.80;;;;;;;8.91;60.19;97961.91;260116;1107;23583;-74
2021/03/12 12:16:27;;;;;;;0.85;0.80;;;;;;;9.22;61.42;97940.73;260392;1109;23199;-74
2021/03/12 12:21:30;;;;;;;1.00;0.70;;;;;;;9.38;60.69;97940.40;259754;1109;23282;-74
2021/03/12 12:26:33;;;;;;;2.07;1.17;;;;;;;9.20;59.90;97950.13;259802;1108;24043;-75
2021/03/12 12:31:37;;;;;;;1.33;0.90;;;;;;;8.84;59.23;97956.98;259368;1109;22965;-75
2021/03/12 12:36:40;;;;;;;1.60;1.50;;;;;;;8.69;59.75;97960.73;260271;1107;26036;-75
2021/03/12 12:41:45;;;;;;;1.90;1.60;;;;;;;8.87;60.23;97969.74;259500;1109;22960;-76
2021/03/12 12:46:48;;;;;;;1.33;1.20;;;;;;;9.06;58.63;97961.61;259200;1107;23030;-76
2021/03/12 12:51:50;;;;;;;2.03;1.13;;;;;;;8.98;58.39;97956.98;258988;1108;23047;-74
2021/03/12 12:56:52;;;;;;;2.20;1.37;;;;;;;8.87;57.83;97958.25;259506;1108;23283;-74
2021/03/12 13:01:54;;;;;;;1.77;1.20;;;;;;;8.80;57.45;97950.66;259483;1109;23081;-73
2021/03/12 13:06:59;;;;;;;1.50;1.40;;;;;;;8.74;57.70;97954.48;259538;1108;23023;-75
2021/03/12 13:12:01;;;;;;;2.60;1.57;;;;;;;8.72;58.59;97962.02;259095;1109;23221;-75
2021/03/12 13:17:04;;;;;;;2.00;1.40;;;;;;;8.80;57.31;97939.16;259486;1109;23147;-75
2021/03/12 13:22:07;;;;;;;2.57;1.30;;;;;;;8.87;56.38;97966.27;259431;1109;23030;-75
2021/03/12 13:27:14;;;;;;;1.30;1.10;;;;;;;8.94;56.99;97955.19;259150;1108;23164;-75
2021/03/12 13:32:17;;;;;;;3.57;1.50;;;;;;;8.99;58.02;97966.56;259047;1108;23206;-75
2021/03/12 13:37:19;;;;;;;2.90;1.90;;;;;;;8.93;56.57;97964.31;259121;1109;23142;-74
2021/03/12 13:42:25;;;;;;;2.90;1.90;;;;;;;8.88;55.88;97971.33;259328;1108;23077;-74
2021/03/12 13:47:27;;;;;;;4.20;1.73;;;;;;;8.84;54.44;97969.53;259086;1108;23092;-75
2021/03/12 13:52:30;;;;;;;2.80;1.60;;;;;;;8.80;55.65;97971.20;259135;1109;23498;-75
2021/03/12 13:57:32;;;;;;;1.97;1.37;;;;;;;8.77;56.33;97969.14;259058;1108;23094;-75
2021/03/12 14:02:34;;;;;;;14.07;8.67;;;;;;;8.75;56.78;97988.13;259227;1109;23083;-75
2021/03/12 14:07:38;;;;;;;3.07;1.73;;;;;;;8.86;57.54;97978.83;258972;1109;23031;-75
2021/03/12 14:12:40;;;;;;;3.50;1.70;;;;;;;8.93;56.93;97989.13;259188;1109;23138;-75
2021/03/12 14:17:43;;;;;;;4.20;1.70;;;;;;;8.90;56.44;97995.07;259351;1109;23468;-76
2021/03/12 14:22:46;;;;;;;2.00;1.73;;;;;;;8.89;57.11;97982.80;260058;1108;23451;-76
2021/03/12 14:27:48;;;;;;;4.97;2.00;;;;;;;8.85;56.63;97979.13;259339;1109;23203;-74
2021/03/12 14:32:53;;;;;;;4.07;2.47;;;;;;;8.79;55.87;97977.66;259417;1109;23702;-75
2021/03/12 14:37:57;;;;;;;4.10;2.30;;;;;;;8.75;56.02;97987.34;260176;1108;26401;-75
2021/03/12 14:42:59;;;;;;;4.60;2.10;;;;;;;8.69;56.55;97994.66;259862;1109;23158;-76
2021/03/12 14:48:02;;;;;;;3.10;1.90;;;;;;;8.58;55.48;97994.04;259937;1109;23001;-77
2021/03/12 14:53:06;;;;;;;4.57;2.13;;;;;;;8.42;56.19;97990.02;259630;1108;23083;-76
2021/03/12 14:58:09;;;;;;;4.87;2.03;;;;;;;8.34;56.98;97983.48;260032;1109;23086;-75
2021/03/12 15:03:11;;;;;;;4.67;2.27;;;;;;;8.33;55.67;97982.67;259609;1107;23003;-76
2021/03/12 15:08:14;;;;;;;4.33;1.87;;;;;;;8.26;55.55;97992.16;259885;1108;23179;-75
2021/03/12 15:13:16;;;;;;;3.87;2.07;;;;;;;8.24;56.40;97984.45;259441;1108;23050;-76
2021/03/12 15:18:19;;;;;;;3.87;1.77;;;;;;;8.13;56.06;97997.15;259195;1108;23034;-75
2021/03/12 15:23:22;;;;;;;4.23;2.17;;;;;;;8.02;54.99;97998.39;259763;1109;23442;-75
2021/03/12 15:28:24;;;;;;;3.20;2.00;;;;;;;7.93;55.71;97994.78;258934;1109;23037;-76
2021/03/12 15:33:27;;;;;;;6.00;3.03;;;;;;;7.91;55.32;98004.97;258773;1108;23038;-76
2021/03/12 15:38:30;;;;;;;3.30;1.93;;;;;;;7.93;55.44;97995.56;258874;1109;23023;-77
2021/03/12 15:43:33;;;;;;;3.45;1.50;;;;;;;7.96;55.33;97999.53;258934;1109;23078;-76
2021/03/12 15:48:37;;;;;;;5.83;2.20;;;;;;;7.81;54.89;98005.91;258953;1109;23058;-76
2021/03/12 15:54:12;;;;;;;3.90;2.07;;;;;;;7.60;55.76;98000.84;258980;1109;23296;-77
2021/03/12 15:59:19;;;;;;;5.93;2.43;;;;;;;7.47;55.76;97996.21;259236;1107;23063;-75
2021/03/12 16:04:22;;;;;;;6.13;2.33;;;;;;;7.45;55.65;97990.39;258849;1108;23093;-76
2021/03/12 16:09:28;;;;;;;4.90;2.20;;;;;;;7.48;54.96;97985.27;259073;1109;23084;-75
2021/03/12 16:14:31;;;;;;;3.75;1.85;;;;;;;7.48;53.90;97989.81;259049;1109;23000;-75
2021/03/12 16:19:33;;;;;;;3.95;1.80;;;;;;;7.38;53.57;98003.28;258779;1109;23027;-76
2021/03/12 16:24:51;;;;;;;4.13;2.20;;;;;;;7.22;52.64;98008.80;259236;1109;23668;-76
2021/03/12 16:30:00;;;;;;;4.63;1.87;;;;;;;7.05;53.37;97998.61;259579;1108;23017;-76
2021/03/12 16:35:08;;;;;;;3.03;1.40;;;;;;;6.84;52.34;98006.81;259091;1108;23151;-76
2021/03/12 16:40:26;;;;;;;5.13;1.60;;;;;;;6.65;54.15;98011.27;258871;1109;23097;-75
2021/03/12 16:45:29;;;;;;;3.00;1.40;;;;;;;6.40;52.72;98014.95;258831;1109;23079;-76
2021/03/12 16:50:32;;;;;;;2.43;1.37;;;;;;;6.23;54.12;98016.14;259189;1109;23034;-75
2021/03/12 16:55:34;;;;;;;3.80;2.00;;;;;;;6.10;54.32;98024.73;259013;1109;23339;-75
2021/03/12 17:00:37;;;;;;;3.90;2.07;;;;;;;5.93;54.26;98038.38;258794;1109;23232;-75
2021/03/12 17:05:39;;;;;;;5.47;2.37;;;;;;;5.76;54.66;98044.06;259090;1109;23399;-76
2021/03/12 17:10:41;;;;;;;6.97;2.10;;;;;;;5.60;55.36;98049.46;259036;1109;23097;-76
2021/03/12 17:15:43;;;;;;;3.60;1.53;;;;;;;5.41;55.94;98046.61;259092;1107;23097;-76
2021/03/12 17:20:46;;;;;;;6.10;2.40;;;;;;;5.23;56.22;98044.56;258798;1109;23066;-75
2021/03/12 17:25:49;;;;;;;4.80;2.50;;;;;;;5.09;56.58;98057.61;258825;1109;25594;-75
2021/03/12 17:30:51;;;;;;;5.35;3.05;;;;;;;5.00;56.51;98062.69;259142;1109;23094;-76
2021/03/12 17:35:54;;;;;;;7.20;3.75;;;;;;;4.95;56.96;98074.12;259187;1108;22998;-75
2021/03/12 17:40:56;;;;;;;8.30;4.50;;;;;;;4.87;57.21;98072.00;258990;1109;23029;-75
2021/03/12 17:46:01;;;;;;;9.03;4.87;;;;;;;4.78;57.04;98068.29;258910;1109;23096;-75
2021/03/12 17:51:04;;;;;;;7.95;4.00;;;;;;;4.67;57.70;98077.33;258794;1108;23083;-75
2021/03/12 17:56:07;;;;;;;9.87;4.20;;;;;;;4.54;57.69;98066.18;258912;1107;26405;-75
2021/03/12 18:01:09;;;;;;;6.63;2.93;;;;;;;4.50;58.30;98069.64;258972;1108;23366;-75
2021/03/12 18:06:12;;;;;;;4.90;2.43;;;;;;;4.41;57.90;98067.52;258770;1109;22990;-75
2021/03/12 18:11:14;;;;;;;7.97;3.60;;;;;;;4.36;58.68;98069.38;258963;1107;23065;-75
2021/03/12 18:16:17;;;;;;;8.20;3.67;;;;;;;4.28;58.90;98071.49;258841;1108;23030;-75
2021/03/12 18:21:20;;;;;;;7.85;3.55;;;;;;;4.18;58.81;98075.98;259018;1109;23017;-75
2021/03/12 18:26:22;;;;;;;7.43;3.70;;;;;;;4.10;58.89;98077.31;258877;1109;23067;-75
2021/03/12 18:31:24;;;;;;;10.70;4.40;;;;;;;3.97;59.95;98077.80;258811;1109;23080;-75
2021/03/12 18:36:26;;;;;;;13.70;6.03;;;;;;;3.81;60.10;98069.81;259020;1108;23087;-76
2021/03/12 18:41:29;;;;;;;12.90;5.80;;;;;;;3.70;60.43;98074.28;258967;1109;23567;-75
2021/03/12 18:46:31;;;;;;;19.55;7.90;;;;;;;3.62;61.42;98072.13;258905;1109;23079;-75
2021/03/12 18:51:35;;;;;;;14.83;7.43;;;;;;;3.60;61.69;98061.80;258896;1109;23226;-75
2021/03/12 18:56:37;;;;;;;18.77;8.33;;;;;;;3.60;62.04;98053.86;259200;1108;23202;-76
2021/03/12 19:01:39;;;;;;;20.23;8.63;;;;;;;3.57;62.05;98056.24;259205;1107;23202;-76
2021/03/12 19:06:44;;;;;;;15.93;7.57;;;;;;;3.52;61.86;98049.06;258894;1108;23055;-75
2021/03/12 19:11:47;;;;;;;20.25;8.65;;;;;;;3.46;62.56;98049.32;259073;1109;23194;-76
2021/03/12 19:16:49;;;;;;;17.93;8.93;;;;;;;3.44;62.24;98052.20;259397;1108;23024;-76
2021/03/12 19:21:52;;;;;;;19.27;7.57;;;;;;;3.37;62.93;98044.52;258839;1108;23068;-76
2021/03/12 19:26:54;;;;;;;18.80;7.87;;;;;;;3.31;62.82;98048.19;258758;1108;23068;-76
2021/03/12 19:31:56;;;;;;;16.63;7.33;;;;;;;3.22;62.43;98045.24;258746;1109;23117;-75
2021/03/12 19:36:58;;;;;;;19.40;7.90;;;;;;;3.16;62.76;98051.58;259068;1108;22992;-76
2021/03/12 19:42:01;;;;;;;18.40;8.00;;;;;;;3.11;62.81;98051.55;258771;1109;23023;-74
2021/03/12 19:47:04;;;;;;;16.57;7.87;;;;;;;3.11;63.12;98056.84;259118;1109;23493;-76
2021/03/12 19:52:07;;;;;;;20.07;8.20;;;;;;;3.12;63.69;98058.44;259063;1108;23367;-75
2021/03/12 19:57:09;;;;;;;21.60;9.03;;;;;;;3.13;63.73;98052.06;258752;1109;26070;-76
2021/03/12 20:02:11;;;;;;;22.50;9.43;;;;;;;3.11;63.87;98048.90;258689;1108;23581;-76
2021/03/12 20:07:13;;;;;;;27.70;9.87;;;;;;;3.11;63.97;98048.11;258961;1109;23058;-75
2021/03/12 20:12:15;;;;;;;26.33;11.57;;;;;;;3.15;63.75;98052.63;259065;1108;23106;-75
2021/03/12 20:17:18;;;;;;;22.33;9.70;;;;;;;3.13;63.98;98054.72;259105;1109;23028;-75
2021/03/12 20:22:20;;;;;;;32.70;12.83;;;;;;;3.10;63.92;98062.39;258728;1108;23006;-76
2021/03/12 20:27:23;;;;;;;41.07;16.40;;;;;;;3.09;63.30;98056.28;258602;1109;26399;-75
2021/03/12 20:32:25;;;;;;;46.27;19.00;;;;;;;3.05;63.69;98049.91;258972;1109;23190;-76
2021/03/12 20:37:27;;;;;;;48.93;20.30;;;;;;;2.95;63.68;98052.51;258998;1108;23028;-75
2021/03/12 20:42:30;;;;;;;50.30;20.63;;;;;;;2.86;63.32;98046.91;259011;1108;23689;-75
2021/03/12 20:47:32;;;;;;;49.43;20.97;;;;;;;2.79;64.00;98043.69;259040;1109;26070;-75
2021/03/12 20:52:35;;;;;;;49.30;21.67;;;;;;;2.73;63.88;98048.16;259369;1109;23148;-75
2021/03/12 20:57:39;;;;;;;61.80;23.07;;;;;;;2.67;64.13;98044.68;259136;1109;23142;-75
2021/03/12 21:02:42;;;;;;;56.90;21.00;;;;;;;2.65;64.46;98049.41;259037;1108;23075;-77
2021/03/12 21:07:44;;;;;;;59.40;24.63;;;;;;;2.61;64.69;98043.03;258751;1108;23067;-76
2021/03/12 21:12:46;;;;;;;65.67;27.50;;;;;;;2.56;64.54;98041.16;258842;1108;23018;-75
2021/03/12 21:17:48;;;;;;;65.70;27.67;;;;;;;2.52;64.60;98040.08;258871;1109;23025;-75
2021/03/12 21:22:52;;;;;;;69.40;29.10;;;;;;;2.45;64.57;98034.20;258765;1108;23020;-75
2021/03/12 21:27:54;;;;;;;70.13;26.30;;;;;;;2.35;65.36;98036.75;258775;1108;23366;-75
2021/03/12 21:32:57;;;;;;;51.57;21.93;;;;;;;2.27;65.89;98026.64;259007;1109;23017;-75
2021/03/12 21:38:00;;;;;;;51.17;20.67;;;;;;;2.23;65.66;98019.23;258901;1108;23222;-75
2021/03/12 21:43:03;;;;;;;49.90;20.13;;;;;;;2.23;66.24;98018.44;258904;1109;23073;-75
2021/03/12 21:48:06;;;;;;;54.07;21.07;;;;;;;2.20;66.19;98025.02;258851;1109;23057;-75
2021/03/12 21:53:08;;;;;;;44.60;19.80;;;;;;;2.16;65.46;98017.86;258683;1107;23199;-76
2021/03/12 21:58:10;;;;;;;48.85;19.65;;;;;;;2.06;65.45;98023.84;258787;1109;23014;-75
2021/03/12 22:03:12;;;;;;;55.10;21.77;;;;;;;1.98;66.06;98027.73;258874;1109;23031;-80
2021/03/12 22:08:15;;;;;;;64.80;25.57;;;;;;;1.90;65.78;98014.97;258911;1109;23033;-76
2021/03/12 22:13:17;;;;;;;62.00;25.00;;;;;;;1.85;65.67;98013.09;258691;1109;23059;-79
2021/03/12 22:18:19;;;;;;;64.10;25.50;;;;;;;1.84;66.79;98014.13;258807;1109;23459;-77
2021/03/12 22:23:21;;;;;;;60.70;25.60;;;;;;;1.81;66.38;98008.56;258753;1109;23088;-75
2021/03/12 22:28:23;;;;;;;66.57;24.67;;;;;;;1.72;66.52;97997.63;258774;1109;23103;-76
2021/03/12 22:33:25;;;;;;;52.10;21.37;;;;;;;1.61;67.22;97993.30;258736;1109;23074;-81
2021/03/12 22:38:28;;;;;;;41.53;17.33;;;;;;;1.53;67.62;97997.20;259219;1109;25989;-76
2021/03/12 22:43:30;;;;;;;59.60;22.27;;;;;;;1.52;68.04;97982.39;259027;1109;23291;-74
2021/03/12 22:48:33;;;;;;;59.50;23.80;;;;;;;1.52;67.64;97985.83;258586;1109;23231;-75
2021/03/12 22:53:35;;;;;;;56.60;20.57;;;;;;;1.51;68.04;97981.61;258734;1109;23520;-75
2021/03/12 22:58:37;;;;;;;59.00;21.67;;;;;;;1.49;67.95;97981.05;258679;1109;23082;-76
2021/03/12 23:03:39;;;;;;;61.77;24.27;;;;;;;1.45;68.41;97981.80;258937;1109;23099;-75
2021/03/12 23:08:42;;;;;;;62.40;23.10;;;;;;;1.41;68.38;97978.84;258729;1108;23171;-75
2021/03/12 23:13:44;;;;;;;49.37;20.57;;;;;;;1.39;68.87;97980.95;259129;1109;24635;-75
2021/03/12 23:18:46;;;;;;;49.93;18.70;;;;;;;1.37;68.63;97972.47;258861;1109;23018;-75
2021/03/12 23:23:52;;;;;;;38.60;16.73;;;;;;;1.40;69.18;97966.72;259004;1108;23077;-74
2021/03/12 23:28:54;;;;;;;39.73;15.07;;;;;;;1.46;68.49;97962.28;258782;1109;26456;-75
2021/03/12 23:33:56;;;;;;;29.27;12.07;;;;;;;1.53;68.69;97955.75;258724;1107;23141;-76
2021/03/12 23:39:07;;;;;;;33.50;12.00;;;;;;;1.63;68.78;97951.63;258994;1109;23170;-76
2021/03/12 23:44:10;;;;;;;25.63;10.97;;;;;;;1.69;68.88;97948.78;258778;1109;23023;-75
2021/03/12 23:49:13;;;;;;;28.57;12.70;;;;;;;1.74;67.95;97952.52;258753;1108;23018;-75